Ashford, WA

2:00 AM PST on November 26, 2014 (GMT -0800)
Paradise Estates | Change Station
CLOSE
Current Station
Personal Weather Station
Location: Ashford, WA
Elevation: 1722 ft
Nearby Weather Stations
Active Advisory: Flood Warning, Areal Flood Watch Active Notice: Record Report

Elev 1722 ft 46.73 °N, 122.01 °W | Updated 1 minute ago

Overcast
Overcast
47.3 °F
Feels Like 47 °F
N
0.0
Wind Variable Wind from ESE
Gusts 0.0 mph

Today
High -- | Low -- °F
--% Chance of Precip.
Yesterday
High -- | Low -- °F
Precip. -- in
7:25 AM 4:24 PM
Waxing Crescent, 18% visible
Pressure 30.22 in
Visibility 10.0 miles
Clouds Scattered Clouds 3200 ft
Mostly Cloudy 6000 ft
Overcast 15000 ft
Windchill 47 °F
Dew Point 47 °F
Humidity 100%
Rainfall 0.02 in
Snow Depth Not available.
UV 0 out of 12
Pollen .10 out of 12
Air Quality Not available.
Flu Activity Not available.
METAR KTCM 260858Z AUTO 20014KT 10SM SCT032 BKN060 OVC150 13/13 A3021 RMK AO2 RAB0830E0840DZB0840E0849 SLP234 P0000 60000 T01320130 51005 $

More Conditions Fewer Conditions

Pressure 30.22 in
Visibility 10.0 miles
Clouds Scattered Clouds 3200 ft
Mostly Cloudy 6000 ft
Overcast 15000 ft
Windchill 47 °F
Dew Point 47 °F
Humidity 100%
Rainfall 0.02 in
Snow Depth Not available.
UV 0 out of 12
Pollen .10 out of 12
Air Quality Not available.
Flu Activity Not available.
METAR KTCM 260858Z AUTO 20014KT 10SM SCT032 BKN060 OVC150 13/13 A3021 RMK AO2 RAB0830E0840DZB0840E0849 SLP234 P0000 60000 T01320130 51005 $

More Conditions Fewer Conditions

10-Day Weather Forecast

Almanac

Astronomy

Nov. 26, 2014 Rise Set
Actual Time
Civil Twilight
Nautical Twilight
Astronomical Twilight
Moon
Length of Visible Light
Length of Day
Tomorrow will be .
, % of the Moon is Illuminated

Today's Extremes

State Highs State Lows

Community

WunderPhotos

Upload Photos

1,773,704 photos uploaded!

WunderBlogs® & News

Nearby

Air Quality

  Air Quality AQ Index Pollutant
Not available.

Snow Depth

Station Depth Elevation

Earthquake Activity

City Distance Mag. Time & Date
Minimum magnitude displayed is 2.5.

Coastal Water Temperatures

Place Temperature

Nearby Weather Stations